sensor_id;sensor_type;location;lat;lon;timestamp;P1;durP1;ratioP1;P2;durP2;ratioP2
2562;SDS011;1291;51.420;6.970;2023-02-28T00:00:33;8.60;;;4.70;;
2562;SDS011;1291;51.420;6.970;2023-02-28T00:03:00;7.40;;;4.77;;
2562;SDS011;1291;51.420;6.970;2023-02-28T00:05:26;8.37;;;4.10;;
2562;SDS011;1291;51.420;6.970;2023-02-28T00:07:53;8.80;;;4.83;;
2562;SDS011;1291;51.420;6.970;2023-02-28T00:10:19;6.97;;;4.30;;
2562;SDS011;1291;51.420;6.970;2023-02-28T00:12:49;5.73;;;4.17;;
2562;SDS011;1291;51.420;6.970;2023-02-28T00:15:15;5.60;;;4.10;;
2562;SDS011;1291;51.420;6.970;2023-02-28T00:17:41;6.57;;;3.80;;
2562;SDS011;1291;51.420;6.970;2023-02-28T00:20:07;10.50;;;4.63;;
2562;SDS011;1291;51.420;6.970;2023-02-28T00:22:37;8.23;;;4.17;;
2562;SDS011;1291;51.420;6.970;2023-02-28T00:25:04;6.40;;;4.03;;
2562;SDS011;1291;51.420;6.970;2023-02-28T00:27:31;6.80;;;4.03;;
2562;SDS011;1291;51.420;6.970;2023-02-28T00:29:57;5.83;;;3.70;;
2562;SDS011;1291;51.420;6.970;2023-02-28T00:32:26;5.87;;;3.83;;
2562;SDS011;1291;51.420;6.970;2023-02-28T00:34:51;6.30;;;3.90;;
2562;SDS011;1291;51.420;6.970;2023-02-28T00:37:16;5.33;;;3.93;;
2562;SDS011;1291;51.420;6.970;2023-02-28T00:39:42;6.17;;;4.03;;
2562;SDS011;1291;51.420;6.970;2023-02-28T00:42:07;7.90;;;3.70;;
2562;SDS011;1291;51.420;6.970;2023-02-28T00:44:33;7.10;;;3.93;;
2562;SDS011;1291;51.420;6.970;2023-02-28T00:46:59;6.83;;;4.30;;
2562;SDS011;1291;51.420;6.970;2023-02-28T00:49:28;7.07;;;3.77;;
2562;SDS011;1291;51.420;6.970;2023-02-28T00:51:56;5.90;;;3.83;;
2562;SDS011;1291;51.420;6.970;2023-02-28T00:54:22;5.50;;;3.53;;
2562;SDS011;1291;51.420;6.970;2023-02-28T00:56:48;4.27;;;3.20;;
2562;SDS011;1291;51.420;6.970;2023-02-28T00:59:14;11.73;;;4.00;;
2562;SDS011;1291;51.420;6.970;2023-02-28T01:01:41;7.57;;;4.03;;
2562;SDS011;1291;51.420;6.970;2023-02-28T01:04:07;5.77;;;3.80;;
2562;SDS011;1291;51.420;6.970;2023-02-28T01:06:33;5.77;;;3.90;;
2562;SDS011;1291;51.420;6.970;2023-02-28T01:08:59;5.77;;;3.80;;
2562;SDS011;1291;51.420;6.970;2023-02-28T01:11:27;5.87;;;3.80;;
2562;SDS011;1291;51.420;6.970;2023-02-28T01:13:53;8.73;;;3.97;;
2562;SDS011;1291;51.420;6.970;2023-02-28T01:16:18;6.03;;;3.60;;
2562;SDS011;1291;51.420;6.970;2023-02-28T01:18:44;5.20;;;3.47;;
2562;SDS011;1291;51.420;6.970;2023-02-28T01:21:10;9.27;;;4.47;;
2562;SDS011;1291;51.420;6.970;2023-02-28T01:23:38;4.23;;;3.53;;
2562;SDS011;1291;51.420;6.970;2023-02-28T01:26:11;5.17;;;3.83;;
2562;SDS011;1291;51.420;6.970;2023-02-28T01:28:38;4.43;;;3.47;;
2562;SDS011;1291;51.420;6.970;2023-02-28T01:31:04;4.50;;;3.07;;
2562;SDS011;1291;51.420;6.970;2023-02-28T01:33:30;5.80;;;3.43;;
2562;SDS011;1291;51.420;6.970;2023-02-28T01:36:00;3.77;;;3.37;;
2562;SDS011;1291;51.420;6.970;2023-02-28T01:38:26;5.63;;;3.73;;
2562;SDS011;1291;51.420;6.970;2023-02-28T01:40:52;6.40;;;4.07;;
2562;SDS011;1291;51.420;6.970;2023-02-28T01:45:46;3.80;;;2.87;;
2562;SDS011;1291;51.420;6.970;2023-02-28T01:48:11;8.60;;;4.00;;
2562;SDS011;1291;51.420;6.970;2023-02-28T01:50:38;5.50;;;3.23;;
2562;SDS011;1291;51.420;6.970;2023-02-28T01:53:09;5.70;;;3.80;;
2562;SDS011;1291;51.420;6.970;2023-02-28T01:55:38;8.43;;;3.80;;
2562;SDS011;1291;51.420;6.970;2023-02-28T01:58:07;5.40;;;3.50;;
2562;SDS011;1291;51.420;6.970;2023-02-28T02:00:34;8.90;;;3.67;;
2562;SDS011;1291;51.420;6.970;2023-02-28T02:03:01;6.63;;;3.60;;
2562;SDS011;1291;51.420;6.970;2023-02-28T02:05:33;10.47;;;4.17;;
2562;SDS011;1291;51.420;6.970;2023-02-28T02:08:03;4.10;;;3.03;;
2562;SDS011;1291;51.420;6.970;2023-02-28T02:18:43;6.27;;;3.53;;
2562;SDS011;1291;51.420;6.970;2023-02-28T02:21:17;5.53;;;3.43;;
2562;SDS011;1291;51.420;6.970;2023-02-28T02:27:13;4.70;;;3.47;;
2562;SDS011;1291;51.420;6.970;2023-02-28T02:32:39;4.67;;;3.60;;
2562;SDS011;1291;51.420;6.970;2023-02-28T02:35:14;9.50;;;3.93;;
2562;SDS011;1291;51.420;6.970;2023-02-28T02:46:27;6.37;;;3.37;;
2562;SDS011;1291;51.420;6.970;2023-02-28T02:48:54;5.07;;;3.10;;
2562;SDS011;1291;51.420;6.970;2023-02-28T02:51:24;7.10;;;3.60;;
2562;SDS011;1291;51.420;6.970;2023-02-28T02:53:55;6.37;;;3.67;;
2562;SDS011;1291;51.420;6.970;2023-02-28T02:56:25;5.80;;;3.43;;
2562;SDS011;1291;51.420;6.970;2023-02-28T02:58:54;6.60;;;3.47;;
2562;SDS011;1291;51.420;6.970;2023-02-28T03:01:26;6.40;;;4.00;;
2562;SDS011;1291;51.420;6.970;2023-02-28T03:03:57;4.40;;;3.43;;
2562;SDS011;1291;51.420;6.970;2023-02-28T03:06:25;8.13;;;3.67;;
2562;SDS011;1291;51.420;6.970;2023-02-28T03:08:51;5.53;;;3.47;;
2562;SDS011;1291;51.420;6.970;2023-02-28T03:11:16;4.67;;;3.47;;
2562;SDS011;1291;51.420;6.970;2023-02-28T03:13:48;4.40;;;3.20;;
2562;SDS011;1291;51.420;6.970;2023-02-28T03:25:09;4.17;;;2.93;;
2562;SDS011;1291;51.420;6.970;2023-02-28T03:30:24;5.97;;;3.50;;
2562;SDS011;1291;51.420;6.970;2023-02-28T03:35:32;4.37;;;3.43;;
2562;SDS011;1291;51.420;6.970;2023-02-28T03:38:22;6.37;;;3.70;;
2562;SDS011;1291;51.420;6.970;2023-02-28T03:40:50;4.97;;;3.13;;
2562;SDS011;1291;51.420;6.970;2023-02-28T03:43:31;5.00;;;3.50;;
2562;SDS011;1291;51.420;6.970;2023-02-28T03:46:00;6.13;;;3.53;;
2562;SDS011;1291;51.420;6.970;2023-02-28T03:48:32;6.70;;;3.33;;
2562;SDS011;1291;51.420;6.970;2023-02-28T03:51:04;6.73;;;3.23;;
2562;SDS011;1291;51.420;6.970;2023-02-28T03:53:36;6.33;;;3.37;;
2562;SDS011;1291;51.420;6.970;2023-02-28T04:01:47;5.20;;;3.10;;
2562;SDS011;1291;51.420;6.970;2023-02-28T04:04:14;4.83;;;3.10;;
2562;SDS011;1291;51.420;6.970;2023-02-28T04:06:40;6.27;;;3.00;;
2562;SDS011;1291;51.420;6.970;2023-02-28T04:09:07;6.10;;;2.83;;
2562;SDS011;1291;51.420;6.970;2023-02-28T04:14:10;7.20;;;3.37;;
2562;SDS011;1291;51.420;6.970;2023-02-28T04:16:38;6.13;;;3.30;;
2562;SDS011;1291;51.420;6.970;2023-02-28T04:19:12;11.97;;;3.43;;
2562;SDS011;1291;51.420;6.970;2023-02-28T04:21:39;8.17;;;3.50;;
2562;SDS011;1291;51.420;6.970;2023-02-28T04:24:10;7.80;;;3.50;;
2562;SDS011;1291;51.420;6.970;2023-02-28T04:26:41;5.03;;;2.97;;
2562;SDS011;1291;51.420;6.970;2023-02-28T04:29:09;4.27;;;2.87;;
2562;SDS011;1291;51.420;6.970;2023-02-28T04:31:35;4.20;;;3.10;;
2562;SDS011;1291;51.420;6.970;2023-02-28T04:34:01;5.37;;;3.20;;
2562;SDS011;1291;51.420;6.970;2023-02-28T04:36:27;8.07;;;3.00;;
2562;SDS011;1291;51.420;6.970;2023-02-28T04:38:52;3.10;;;2.80;;
2562;SDS011;1291;51.420;6.970;2023-02-28T04:41:18;7.37;;;2.70;;
2562;SDS011;1291;51.420;6.970;2023-02-28T04:43:44;4.40;;;2.77;;
2562;SDS011;1291;51.420;6.970;2023-02-28T04:46:09;4.43;;;3.17;;
2562;SDS011;1291;51.420;6.970;2023-02-28T04:48:36;4.70;;;2.83;;
2562;SDS011;1291;51.420;6.970;2023-02-28T04:51:03;4.97;;;3.10;;
2562;SDS011;1291;51.420;6.970;2023-02-28T04:53:37;9.03;;;3.20;;
2562;SDS011;1291;51.420;6.970;2023-02-28T04:56:04;4.67;;;2.80;;
2562;SDS011;1291;51.420;6.970;2023-02-28T04:58:30;5.33;;;2.97;;
2562;SDS011;1291;51.420;6.970;2023-02-28T05:03:55;3.33;;;2.73;;
2562;SDS011;1291;51.420;6.970;2023-02-28T05:06:23;4.23;;;3.03;;
2562;SDS011;1291;51.420;6.970;2023-02-28T05:08:50;6.17;;;3.50;;
2562;SDS011;1291;51.420;6.970;2023-02-28T05:13:50;5.97;;;3.50;;
2562;SDS011;1291;51.420;6.970;2023-02-28T05:16:16;5.17;;;3.10;;
2562;SDS011;1291;51.420;6.970;2023-02-28T05:18:43;5.30;;;2.83;;
2562;SDS011;1291;51.420;6.970;2023-02-28T05:21:22;5.07;;;3.00;;
2562;SDS011;1291;51.420;6.970;2023-02-28T05:23:50;9.00;;;3.40;;
2562;SDS011;1291;51.420;6.970;2023-02-28T05:26:16;4.57;;;3.00;;
2562;SDS011;1291;51.420;6.970;2023-02-28T05:28:41;8.07;;;3.17;;
2562;SDS011;1291;51.420;6.970;2023-02-28T05:31:07;7.53;;;3.00;;
2562;SDS011;1291;51.420;6.970;2023-02-28T05:33:35;4.10;;;3.07;;
2562;SDS011;1291;51.420;6.970;2023-02-28T05:36:01;11.33;;;3.63;;
2562;SDS011;1291;51.420;6.970;2023-02-28T05:38:26;3.67;;;2.73;;
2562;SDS011;1291;51.420;6.970;2023-02-28T05:40:51;4.43;;;3.33;;
2562;SDS011;1291;51.420;6.970;2023-02-28T05:43:18;5.43;;;3.30;;
2562;SDS011;1291;51.420;6.970;2023-02-28T05:45:43;5.07;;;3.17;;
2562;SDS011;1291;51.420;6.970;2023-02-28T05:48:09;5.07;;;2.70;;
2562;SDS011;1291;51.420;6.970;2023-02-28T05:50:34;5.57;;;3.10;;
2562;SDS011;1291;51.420;6.970;2023-02-28T05:52:59;3.90;;;3.20;;
2562;SDS011;1291;51.420;6.970;2023-02-28T05:55:25;5.33;;;3.13;;
2562;SDS011;1291;51.420;6.970;2023-02-28T05:57:50;10.77;;;3.80;;
2562;SDS011;1291;51.420;6.970;2023-02-28T06:00:16;4.53;;;3.20;;
2562;SDS011;1291;51.420;6.970;2023-02-28T06:02:42;4.77;;;3.13;;
2562;SDS011;1291;51.420;6.970;2023-02-28T06:05:12;4.97;;;3.57;;
2562;SDS011;1291;51.420;6.970;2023-02-28T06:07:40;7.43;;;3.27;;
2562;SDS011;1291;51.420;6.970;2023-02-28T06:10:05;4.93;;;2.87;;
2562;SDS011;1291;51.420;6.970;2023-02-28T06:12:34;4.60;;;3.10;;
2562;SDS011;1291;51.420;6.970;2023-02-28T06:14:59;5.63;;;3.40;;
2562;SDS011;1291;51.420;6.970;2023-02-28T06:17:24;4.60;;;3.17;;
2562;SDS011;1291;51.420;6.970;2023-02-28T06:19:50;8.10;;;3.40;;
2562;SDS011;1291;51.420;6.970;2023-02-28T06:22:15;5.23;;;3.30;;
2562;SDS011;1291;51.420;6.970;2023-02-28T06:24:40;3.77;;;2.87;;
2562;SDS011;1291;51.420;6.970;2023-02-28T06:27:06;3.63;;;3.03;;
2562;SDS011;1291;51.420;6.970;2023-02-28T06:29:32;4.43;;;3.60;;
2562;SDS011;1291;51.420;6.970;2023-02-28T06:31:58;6.67;;;3.47;;
2562;SDS011;1291;51.420;6.970;2023-02-28T06:34:23;7.27;;;3.70;;
2562;SDS011;1291;51.420;6.970;2023-02-28T06:36:50;5.90;;;3.30;;
2562;SDS011;1291;51.420;6.970;2023-02-28T06:39:16;6.27;;;3.30;;
2562;SDS011;1291;51.420;6.970;2023-02-28T06:41:42;9.33;;;3.40;;
2562;SDS011;1291;51.420;6.970;2023-02-28T06:44:11;6.27;;;3.13;;
2562;SDS011;1291;51.420;6.970;2023-02-28T06:46:38;7.90;;;3.50;;
2562;SDS011;1291;51.420;6.970;2023-02-28T06:49:07;4.97;;;3.10;;
2562;SDS011;1291;51.420;6.970;2023-02-28T06:51:36;7.10;;;3.50;;
2562;SDS011;1291;51.420;6.970;2023-02-28T06:54:04;5.43;;;3.43;;
2562;SDS011;1291;51.420;6.970;2023-02-28T06:56:29;6.80;;;3.67;;
2562;SDS011;1291;51.420;6.970;2023-02-28T06:58:55;7.40;;;3.60;;
2562;SDS011;1291;51.420;6.970;2023-02-28T07:01:21;6.27;;;3.40;;
2562;SDS011;1291;51.420;6.970;2023-02-28T07:03:48;9.00;;;3.53;;
2562;SDS011;1291;51.420;6.970;2023-02-28T07:06:17;7.97;;;3.43;;
2562;SDS011;1291;51.420;6.970;2023-02-28T07:08:43;6.03;;;3.53;;
2562;SDS011;1291;51.420;6.970;2023-02-28T07:11:09;5.43;;;3.47;;
2562;SDS011;1291;51.420;6.970;2023-02-28T07:13:35;5.67;;;3.37;;
2562;SDS011;1291;51.420;6.970;2023-02-28T07:16:02;6.90;;;3.73;;
2562;SDS011;1291;51.420;6.970;2023-02-28T07:18:29;5.93;;;3.17;;
2562;SDS011;1291;51.420;6.970;2023-02-28T07:20:54;4.80;;;3.70;;
2562;SDS011;1291;51.420;6.970;2023-02-28T07:23:20;5.73;;;3.53;;
2562;SDS011;1291;51.420;6.970;2023-02-28T07:25:46;7.67;;;3.87;;
2562;SDS011;1291;51.420;6.970;2023-02-28T07:28:12;7.33;;;3.63;;
2562;SDS011;1291;51.420;6.970;2023-02-28T07:30:38;5.43;;;3.37;;
2562;SDS011;1291;51.420;6.970;2023-02-28T07:33:03;5.83;;;4.17;;
2562;SDS011;1291;51.420;6.970;2023-02-28T07:35:29;6.13;;;3.57;;
2562;SDS011;1291;51.420;6.970;2023-02-28T07:37:56;6.93;;;3.43;;
2562;SDS011;1291;51.420;6.970;2023-02-28T07:40:22;7.37;;;3.97;;
2562;SDS011;1291;51.420;6.970;2023-02-28T07:42:48;7.60;;;3.63;;
2562;SDS011;1291;51.420;6.970;2023-02-28T07:45:13;8.50;;;3.90;;
2562;SDS011;1291;51.420;6.970;2023-02-28T07:47:39;4.43;;;3.67;;
2562;SDS011;1291;51.420;6.970;2023-02-28T07:50:06;7.17;;;3.90;;
2562;SDS011;1291;51.420;6.970;2023-02-28T07:52:38;7.80;;;3.70;;
2562;SDS011;1291;51.420;6.970;2023-02-28T07:55:04;9.90;;;3.67;;
2562;SDS011;1291;51.420;6.970;2023-02-28T07:57:30;5.10;;;3.63;;
2562;SDS011;1291;51.420;6.970;2023-02-28T07:59:56;4.07;;;3.10;;
2562;SDS011;1291;51.420;6.970;2023-02-28T08:02:22;9.87;;;4.43;;
2562;SDS011;1291;51.420;6.970;2023-02-28T08:04:47;5.60;;;4.00;;
2562;SDS011;1291;51.420;6.970;2023-02-28T08:07:13;7.70;;;4.00;;
2562;SDS011;1291;51.420;6.970;2023-02-28T08:09:39;6.50;;;4.13;;
2562;SDS011;1291;51.420;6.970;2023-02-28T08:12:05;7.77;;;3.50;;
2562;SDS011;1291;51.420;6.970;2023-02-28T08:14:34;9.63;;;3.90;;
2562;SDS011;1291;51.420;6.970;2023-02-28T08:17:00;8.40;;;4.20;;
2562;SDS011;1291;51.420;6.970;2023-02-28T08:19:25;6.40;;;3.50;;
2562;SDS011;1291;51.420;6.970;2023-02-28T08:21:51;6.57;;;4.17;;
2562;SDS011;1291;51.420;6.970;2023-02-28T08:24:17;7.37;;;3.87;;
2562;SDS011;1291;51.420;6.970;2023-02-28T08:26:42;4.80;;;3.77;;
2562;SDS011;1291;51.420;6.970;2023-02-28T08:29:07;4.93;;;3.63;;
2562;SDS011;1291;51.420;6.970;2023-02-28T08:31:33;7.23;;;4.20;;
2562;SDS011;1291;51.420;6.970;2023-02-28T08:34:00;4.23;;;3.73;;
2562;SDS011;1291;51.420;6.970;2023-02-28T08:36:29;9.07;;;4.90;;
2562;SDS011;1291;51.420;6.970;2023-02-28T08:38:54;5.07;;;3.70;;
2562;SDS011;1291;51.420;6.970;2023-02-28T08:41:21;8.17;;;3.87;;
2562;SDS011;1291;51.420;6.970;2023-02-28T08:43:46;6.27;;;4.03;;
2562;SDS011;1291;51.420;6.970;2023-02-28T08:46:12;5.97;;;3.97;;
2562;SDS011;1291;51.420;6.970;2023-02-28T08:48:38;5.80;;;3.77;;
2562;SDS011;1291;51.420;6.970;2023-02-28T08:51:08;6.30;;;3.73;;
2562;SDS011;1291;51.420;6.970;2023-02-28T08:53:36;4.87;;;3.30;;
2562;SDS011;1291;51.420;6.970;2023-02-28T08:56:04;4.53;;;3.50;;
2562;SDS011;1291;51.420;6.970;2023-02-28T08:58:30;7.87;;;3.03;;
2562;SDS011;1291;51.420;6.970;2023-02-28T09:00:55;3.70;;;2.97;;
2562;SDS011;1291;51.420;6.970;2023-02-28T09:03:21;3.13;;;2.70;;
2562;SDS011;1291;51.420;6.970;2023-02-28T09:08:18;2.47;;;2.27;;
2562;SDS011;1291;51.420;6.970;2023-02-28T09:10:43;3.10;;;2.63;;
2562;SDS011;1291;51.420;6.970;2023-02-28T09:13:14;5.17;;;2.70;;
2562;SDS011;1291;51.420;6.970;2023-02-28T09:15:43;2.60;;;2.40;;
2562;SDS011;1291;51.420;6.970;2023-02-28T09:18:08;6.80;;;2.63;;
2562;SDS011;1291;51.420;6.970;2023-02-28T09:20:36;5.07;;;2.97;;
2562;SDS011;1291;51.420;6.970;2023-02-28T09:23:03;5.60;;;2.70;;
2562;SDS011;1291;51.420;6.970;2023-02-28T09:25:28;5.47;;;2.97;;
2562;SDS011;1291;51.420;6.970;2023-02-28T09:27:57;6.17;;;2.83;;
2562;SDS011;1291;51.420;6.970;2023-02-28T09:30:22;4.60;;;2.87;;
2562;SDS011;1291;51.420;6.970;2023-02-28T09:32:47;3.57;;;2.57;;
2562;SDS011;1291;51.420;6.970;2023-02-28T09:35:23;4.23;;;3.20;;
2562;SDS011;1291;51.420;6.970;2023-02-28T09:37:50;3.93;;;2.87;;
2562;SDS011;1291;51.420;6.970;2023-02-28T09:40:19;5.97;;;2.70;;
2562;SDS011;1291;51.420;6.970;2023-02-28T09:42:47;4.67;;;2.60;;
2562;SDS011;1291;51.420;6.970;2023-02-28T09:45:24;3.80;;;2.33;;
2562;SDS011;1291;51.420;6.970;2023-02-28T09:47:54;2.47;;;2.17;;
2562;SDS011;1291;51.420;6.970;2023-02-28T09:52:51;4.70;;;2.53;;
2562;SDS011;1291;51.420;6.970;2023-02-28T09:55:20;3.50;;;2.67;;
2562;SDS011;1291;51.420;6.970;2023-02-28T09:57:52;4.37;;;2.33;;
2562;SDS011;1291;51.420;6.970;2023-02-28T10:00:39;2.93;;;2.20;;
2562;SDS011;1291;51.420;6.970;2023-02-28T10:05:52;4.20;;;2.17;;
2562;SDS011;1291;51.420;6.970;2023-02-28T10:08:36;2.40;;;2.07;;
2562;SDS011;1291;51.420;6.970;2023-02-28T10:11:07;3.00;;;2.20;;
2562;SDS011;1291;51.420;6.970;2023-02-28T10:13:40;3.17;;;2.87;;
2562;SDS011;1291;51.420;6.970;2023-02-28T10:16:16;2.63;;;2.30;;
2562;SDS011;1291;51.420;6.970;2023-02-28T10:18:52;5.27;;;2.13;;
2562;SDS011;1291;51.420;6.970;2023-02-28T10:21:37;4.60;;;2.13;;
2562;SDS011;1291;51.420;6.970;2023-02-28T10:27:17;4.50;;;2.40;;
2562;SDS011;1291;51.420;6.970;2023-02-28T10:29:44;4.70;;;2.30;;
2562;SDS011;1291;51.420;6.970;2023-02-28T10:32:15;2.57;;;1.90;;
2562;SDS011;1291;51.420;6.970;2023-02-28T10:35:10;4.27;;;2.33;;
2562;SDS011;1291;51.420;6.970;2023-02-28T10:37:33;6.47;;;2.07;;
2562;SDS011;1291;51.420;6.970;2023-02-28T10:40:03;1.70;;;1.60;;
2562;SDS011;1291;51.420;6.970;2023-02-28T10:42:31;3.53;;;2.10;;
2562;SDS011;1291;51.420;6.970;2023-02-28T10:45:31;2.70;;;1.87;;
2562;SDS011;1291;51.420;6.970;2023-02-28T10:53:16;2.33;;;1.83;;
2562;SDS011;1291;51.420;6.970;2023-02-28T10:55:42;3.23;;;1.70;;
2562;SDS011;1291;51.420;6.970;2023-02-28T11:01:37;2.60;;;1.63;;
2562;SDS011;1291;51.420;6.970;2023-02-28T11:04:16;7.13;;;1.90;;
2562;SDS011;1291;51.420;6.970;2023-02-28T11:06:42;2.97;;;1.57;;
2562;SDS011;1291;51.420;6.970;2023-02-28T11:12:04;2.13;;;1.90;;
2562;SDS011;1291;51.420;6.970;2023-02-28T11:14:36;3.43;;;1.77;;
2562;SDS011;1291;51.420;6.970;2023-02-28T11:17:22;3.57;;;1.70;;
2562;SDS011;1291;51.420;6.970;2023-02-28T11:19:51;3.37;;;1.80;;
2562;SDS011;1291;51.420;6.970;2023-02-28T11:22:21;5.30;;;2.07;;
2562;SDS011;1291;51.420;6.970;2023-02-28T11:24:50;3.57;;;2.13;;
2562;SDS011;1291;51.420;6.970;2023-02-28T11:29:56;4.33;;;2.13;;
2562;SDS011;1291;51.420;6.970;2023-02-28T11:32:23;5.00;;;2.20;;
2562;SDS011;1291;51.420;6.970;2023-02-28T11:37:31;4.10;;;1.97;;
2562;SDS011;1291;51.420;6.970;2023-02-28T11:39:57;3.63;;;2.10;;
2562;SDS011;1291;51.420;6.970;2023-02-28T11:53:12;3.20;;;2.17;;
2562;SDS011;1291;51.420;6.970;2023-02-28T12:01:28;2.77;;;2.07;;
2562;SDS011;1291;51.420;6.970;2023-02-28T12:15:42;2.43;;;1.97;;
2562;SDS011;1291;51.420;6.970;2023-02-28T12:23:52;1.93;;;1.83;;
2562;SDS011;1291;51.420;6.970;2023-02-28T12:29:21;3.07;;;1.97;;
2562;SDS011;1291;51.420;6.970;2023-02-28T12:34:38;2.30;;;2.00;;
2562;SDS011;1291;51.420;6.970;2023-02-28T12:37:09;3.00;;;2.40;;
2562;SDS011;1291;51.420;6.970;2023-02-28T12:39:46;7.77;;;2.50;;
2562;SDS011;1291;51.420;6.970;2023-02-28T12:42:19;2.10;;;1.90;;
2562;SDS011;1291;51.420;6.970;2023-02-28T12:45:13;2.80;;;2.10;;
2562;SDS011;1291;51.420;6.970;2023-02-28T12:47:40;7.37;;;2.10;;
2562;SDS011;1291;51.420;6.970;2023-02-28T12:50:10;5.43;;;2.50;;
2562;SDS011;1291;51.420;6.970;2023-02-28T13:01:06;2.83;;;2.07;;
2562;SDS011;1291;51.420;6.970;2023-02-28T13:06:41;5.07;;;2.70;;
2562;SDS011;1291;51.420;6.970;2023-02-28T13:09:16;3.00;;;2.50;;
2562;SDS011;1291;51.420;6.970;2023-02-28T13:11:46;4.17;;;2.50;;
2562;SDS011;1291;51.420;6.970;2023-02-28T13:14:30;2.30;;;2.10;;
2562;SDS011;1291;51.420;6.970;2023-02-28T13:19:40;2.60;;;2.40;;
2562;SDS011;1291;51.420;6.970;2023-02-28T13:22:36;3.30;;;2.53;;
2562;SDS011;1291;51.420;6.970;2023-02-28T13:27:50;3.73;;;2.13;;
2562;SDS011;1291;51.420;6.970;2023-02-28T13:36:09;3.80;;;2.40;;
2562;SDS011;1291;51.420;6.970;2023-02-28T13:43:59;3.00;;;2.70;;
2562;SDS011;1291;51.420;6.970;2023-02-28T13:49:31;4.13;;;2.80;;
2562;SDS011;1291;51.420;6.970;2023-02-28T14:06:14;2.73;;;2.53;;
2562;SDS011;1291;51.420;6.970;2023-02-28T14:11:44;4.00;;;2.43;;
2562;SDS011;1291;51.420;6.970;2023-02-28T14:14:53;3.03;;;2.70;;
2562;SDS011;1291;51.420;6.970;2023-02-28T14:17:03;3.70;;;2.90;;
2562;SDS011;1291;51.420;6.970;2023-02-28T14:19:30;3.40;;;2.47;;
2562;SDS011;1291;51.420;6.970;2023-02-28T14:39:17;3.33;;;3.03;;
2562;SDS011;1291;51.420;6.970;2023-02-28T14:41:45;6.13;;;2.90;;
2562;SDS011;1291;51.420;6.970;2023-02-28T14:46:40;6.03;;;3.27;;
2562;SDS011;1291;51.420;6.970;2023-02-28T14:49:12;4.10;;;3.00;;
2562;SDS011;1291;51.420;6.970;2023-02-28T14:51:42;3.40;;;3.10;;
2562;SDS011;1291;51.420;6.970;2023-02-28T14:54:12;2.93;;;2.73;;
2562;SDS011;1291;51.420;6.970;2023-02-28T14:56:40;5.57;;;2.90;;
2562;SDS011;1291;51.420;6.970;2023-02-28T14:59:17;3.07;;;2.77;;
2562;SDS011;1291;51.420;6.970;2023-02-28T15:01:48;4.30;;;3.03;;
2562;SDS011;1291;51.420;6.970;2023-02-28T15:04:18;5.80;;;3.30;;
2562;SDS011;1291;51.420;6.970;2023-02-28T15:09:36;3.87;;;3.20;;
2562;SDS011;1291;51.420;6.970;2023-02-28T15:12:01;4.20;;;3.10;;
2562;SDS011;1291;51.420;6.970;2023-02-28T15:14:27;8.07;;;3.10;;
2562;SDS011;1291;51.420;6.970;2023-02-28T15:17:00;3.87;;;3.20;;
2562;SDS011;1291;51.420;6.970;2023-02-28T15:19:31;5.37;;;3.47;;
2562;SDS011;1291;51.420;6.970;2023-02-28T15:21:59;4.47;;;3.07;;
2562;SDS011;1291;51.420;6.970;2023-02-28T15:24:40;3.50;;;3.00;;
2562;SDS011;1291;51.420;6.970;2023-02-28T15:27:20;3.83;;;3.30;;
2562;SDS011;1291;51.420;6.970;2023-02-28T15:29:51;6.30;;;3.30;;
2562;SDS011;1291;51.420;6.970;2023-02-28T15:32:23;3.33;;;3.03;;
2562;SDS011;1291;51.420;6.970;2023-02-28T15:34:51;3.80;;;3.40;;
2562;SDS011;1291;51.420;6.970;2023-02-28T15:43:04;3.30;;;2.97;;
2562;SDS011;1291;51.420;6.970;2023-02-28T15:48:18;4.17;;;2.73;;
2562;SDS011;1291;51.420;6.970;2023-02-28T15:50:47;4.73;;;3.30;;
2562;SDS011;1291;51.420;6.970;2023-02-28T15:53:16;3.50;;;3.20;;
2562;SDS011;1291;51.420;6.970;2023-02-28T15:55:44;4.53;;;3.00;;
2562;SDS011;1291;51.420;6.970;2023-02-28T15:58:13;5.70;;;3.23;;
2562;SDS011;1291;51.420;6.970;2023-02-28T16:00:39;5.70;;;3.37;;
2562;SDS011;1291;51.420;6.970;2023-02-28T16:03:27;5.57;;;3.10;;
2562;SDS011;1291;51.420;6.970;2023-02-28T16:08:46;4.20;;;3.67;;
2562;SDS011;1291;51.420;6.970;2023-02-28T16:11:13;4.83;;;3.03;;
2562;SDS011;1291;51.420;6.970;2023-02-28T16:13:39;5.17;;;3.13;;
2562;SDS011;1291;51.420;6.970;2023-02-28T16:16:05;5.80;;;4.03;;
2562;SDS011;1291;51.420;6.970;2023-02-28T16:18:30;2.93;;;2.63;;
2562;SDS011;1291;51.420;6.970;2023-02-28T16:20:55;5.57;;;3.47;;
2562;SDS011;1291;51.420;6.970;2023-02-28T16:23:21;4.90;;;3.83;;
2562;SDS011;1291;51.420;6.970;2023-02-28T16:25:46;3.77;;;3.17;;
2562;SDS011;1291;51.420;6.970;2023-02-28T16:28:15;4.97;;;3.20;;
2562;SDS011;1291;51.420;6.970;2023-02-28T16:30:44;4.63;;;3.53;;
2562;SDS011;1291;51.420;6.970;2023-02-28T16:33:10;4.83;;;2.97;;
2562;SDS011;1291;51.420;6.970;2023-02-28T16:35:35;3.87;;;3.23;;
2562;SDS011;1291;51.420;6.970;2023-02-28T16:38:01;3.80;;;3.50;;
2562;SDS011;1291;51.420;6.970;2023-02-28T16:40:26;3.67;;;3.37;;
2562;SDS011;1291;51.420;6.970;2023-02-28T16:42:54;4.67;;;3.53;;
2562;SDS011;1291;51.420;6.970;2023-02-28T16:45:25;6.47;;;3.63;;
2562;SDS011;1291;51.420;6.970;2023-02-28T16:47:51;4.83;;;3.57;;
2562;SDS011;1291;51.420;6.970;2023-02-28T16:50:22;6.63;;;4.03;;
2562;SDS011;1291;51.420;6.970;2023-02-28T16:52:52;5.13;;;3.90;;
2562;SDS011;1291;51.420;6.970;2023-02-28T16:55:19;3.90;;;3.40;;
2562;SDS011;1291;51.420;6.970;2023-02-28T16:57:46;7.00;;;3.40;;
2562;SDS011;1291;51.420;6.970;2023-02-28T17:00:18;5.10;;;3.53;;
2562;SDS011;1291;51.420;6.970;2023-02-28T17:02:44;3.73;;;3.33;;
2562;SDS011;1291;51.420;6.970;2023-02-28T17:05:13;5.87;;;3.37;;
2562;SDS011;1291;51.420;6.970;2023-02-28T17:07:40;3.63;;;3.30;;
2562;SDS011;1291;51.420;6.970;2023-02-28T17:10:16;3.83;;;3.50;;
2562;SDS011;1291;51.420;6.970;2023-02-28T17:12:43;4.00;;;3.07;;
2562;SDS011;1291;51.420;6.970;2023-02-28T17:15:10;4.50;;;3.50;;
2562;SDS011;1291;51.420;6.970;2023-02-28T17:17:37;5.00;;;3.53;;
2562;SDS011;1291;51.420;6.970;2023-02-28T17:20:03;6.63;;;3.23;;
2562;SDS011;1291;51.420;6.970;2023-02-28T17:22:31;5.73;;;3.60;;
2562;SDS011;1291;51.420;6.970;2023-02-28T17:24:57;4.53;;;3.30;;
2562;SDS011;1291;51.420;6.970;2023-02-28T17:27:23;6.00;;;3.60;;
2562;SDS011;1291;51.420;6.970;2023-02-28T17:29:49;4.60;;;3.40;;
2562;SDS011;1291;51.420;6.970;2023-02-28T17:32:15;5.50;;;3.57;;
2562;SDS011;1291;51.420;6.970;2023-02-28T17:34:40;3.93;;;3.30;;
2562;SDS011;1291;51.420;6.970;2023-02-28T17:37:07;5.17;;;3.57;;
2562;SDS011;1291;51.420;6.970;2023-02-28T17:39:33;5.67;;;3.27;;
2562;SDS011;1291;51.420;6.970;2023-02-28T17:41:59;4.50;;;3.90;;
2562;SDS011;1291;51.420;6.970;2023-02-28T17:44:24;4.87;;;3.43;;
2562;SDS011;1291;51.420;6.970;2023-02-28T17:46:50;7.00;;;3.90;;
2562;SDS011;1291;51.420;6.970;2023-02-28T17:49:16;5.07;;;3.20;;
2562;SDS011;1291;51.420;6.970;2023-02-28T17:51:42;5.23;;;3.20;;
2562;SDS011;1291;51.420;6.970;2023-02-28T17:54:07;5.10;;;3.80;;
2562;SDS011;1291;51.420;6.970;2023-02-28T17:56:33;7.70;;;3.60;;
2562;SDS011;1291;51.420;6.970;2023-02-28T17:58:58;4.50;;;3.37;;
2562;SDS011;1291;51.420;6.970;2023-02-28T18:01:24;5.20;;;3.37;;
2562;SDS011;1291;51.420;6.970;2023-02-28T18:03:55;4.77;;;3.33;;
2562;SDS011;1291;51.420;6.970;2023-02-28T18:06:22;3.93;;;3.17;;
2562;SDS011;1291;51.420;6.970;2023-02-28T18:08:56;3.83;;;3.20;;
2562;SDS011;1291;51.420;6.970;2023-02-28T18:11:22;9.30;;;3.63;;
2562;SDS011;1291;51.420;6.970;2023-02-28T18:13:49;10.10;;;4.17;;
2562;SDS011;1291;51.420;6.970;2023-02-28T18:16:16;4.40;;;3.97;;
2562;SDS011;1291;51.420;6.970;2023-02-28T18:18:42;5.00;;;3.60;;
2562;SDS011;1291;51.420;6.970;2023-02-28T18:21:09;3.90;;;3.50;;
2562;SDS011;1291;51.420;6.970;2023-02-28T18:23:36;7.47;;;4.00;;
2562;SDS011;1291;51.420;6.970;2023-02-28T18:26:05;8.27;;;4.00;;
2562;SDS011;1291;51.420;6.970;2023-02-28T18:28:32;4.63;;;3.60;;
2562;SDS011;1291;51.420;6.970;2023-02-28T18:31:04;10.17;;;4.47;;
2562;SDS011;1291;51.420;6.970;2023-02-28T18:33:30;4.00;;;3.60;;
2562;SDS011;1291;51.420;6.970;2023-02-28T18:35:55;4.53;;;3.87;;
2562;SDS011;1291;51.420;6.970;2023-02-28T18:38:21;5.57;;;4.00;;
2562;SDS011;1291;51.420;6.970;2023-02-28T18:40:57;5.13;;;3.87;;
2562;SDS011;1291;51.420;6.970;2023-02-28T18:43:25;6.13;;;3.90;;
2562;SDS011;1291;51.420;6.970;2023-02-28T18:45:52;4.77;;;3.87;;